Time,TemperatureF,DewpointF,PressureIn,WindDirection,WindDirectionDegrees,WindSpeedMPH,WindSpeedGustMPH,Humidity,HourlyPrecipIn,Conditions,Clouds,dailyrainin,SoftwareType,DateUTC
2013-01-08 00:00:00,41.4,40.3,28.53,East,93,0.0,0.0,96,0.00,,---,0.00,VWS V14.01,2013-01-08 08:00:00,
2013-01-08 00:03:00,41.4,40.3,28.53,ESE,109,0.0,0.0,96,0.00,,---,0.00,VWS V14.01,2013-01-08 08:03:00,
2013-01-08 00:08:00,41.4,40.3,28.53,East,98,0.0,0.0,96,0.00,,---,0.00,VWS V14.01,2013-01-08 08:08:00,
2013-01-08 00:10:00,41.4,40.3,28.53,East,98,0.0,0.0,96,0.00,,---,0.00,VWS V14.01,2013-01-08 08:10:00,
2013-01-08 00:13:00,41.2,40.1,28.53,East,98,0.0,0.0,96,0.00,,---,0.00,VWS V14.01,2013-01-08 08:13:00,
2013-01-08 00:18:00,41.2,40.1,28.53,SSE,162,0.0,0.0,96,0.00,,---,0.00,VWS V14.01,2013-01-08 08:18:00,
2013-01-08 00:20:00,41.2,40.1,28.53,SSE,162,0.0,0.0,96,0.00,,---,0.00,VWS V14.01,2013-01-08 08:20:00,
2013-01-08 00:23:00,41.2,40.1,28.53,SSE,162,0.0,0.0,96,0.00,,---,0.00,VWS V14.01,2013-01-08 08:23:00,
2013-01-08 00:28:00,41.2,40.1,28.53,East,96,0.0,0.0,96,0.00,,---,0.00,VWS V14.01,2013-01-08 08:28:00,
2013-01-08 00:30:00,41.2,40.1,28.53,East,96,0.0,0.0,96,0.00,,---,0.00,VWS V14.01,2013-01-08 08:30:00,
2013-01-08 00:33:00,41.2,40.1,28.53,ESE,106,0.0,0.0,96,0.00,,---,0.00,VWS V14.01,2013-01-08 08:33:00,
2013-01-08 00:38:00,41.2,40.1,28.53,ENE,65,0.0,0.0,96,0.00,,---,0.00,VWS V14.01,2013-01-08 08:38:00,
2013-01-08 00:40:00,41.2,40.1,28.53,North,5,3.6,4.9,96,0.00,,---,0.00,VWS V14.01,2013-01-08 08:40:00,
2013-01-08 00:43:00,41.2,40.1,28.53,North,5,2.7,2.7,96,0.00,,---,0.00,VWS V14.01,2013-01-08 08:43:00,
2013-01-08 00:48:00,41.0,40.0,28.53,North,5,0.0,0.0,96,0.00,,---,0.00,VWS V14.01,2013-01-08 08:48:00,
2013-01-08 00:50:00,41.0,40.0,28.53,North,5,0.0,0.0,96,0.00,,---,0.00,VWS V14.01,2013-01-08 08:50:00,
2013-01-08 00:53:00,41.0,40.0,28.53,NNW,338,0.0,0.0,96,0.00,,---,0.00,VWS V14.01,2013-01-08 08:53:00,
2013-01-08 00:58:00,41.0,40.0,28.53,NNW,338,0.0,0.0,96,0.00,,---,0.00,VWS V14.01,2013-01-08 08:58:00,
2013-01-08 01:00:00,41.0,40.0,28.53,NNW,338,0.0,0.0,96,0.00,,---,0.00,VWS V14.01,2013-01-08 09:00:00,
2013-01-08 01:03:00,41.0,40.0,28.53,NNW,339,0.0,0.0,96,0.00,,---,0.00,VWS V14.01,2013-01-08 09:03:00,
2013-01-08 01:08:00,41.0,40.0,28.53,NNW,338,0.0,0.0,96,0.00,,---,0.00,VWS V14.01,2013-01-08 09:08:00,
2013-01-08 01:10:00,41.0,40.0,28.53,NNW,338,0.0,0.0,96,0.00,,---,0.00,VWS V14.01,2013-01-08 09:10:00,
2013-01-08 01:13:00,41.0,40.0,28.53,NNW,338,0.0,0.0,96,0.00,,---,0.00,VWS V14.01,2013-01-08 09:13:00,
2013-01-08 01:18:00,41.0,40.0,28.53,NNW,338,0.0,0.0,96,0.00,,---,0.00,VWS V14.01,2013-01-08 09:18:00,
2013-01-08 01:20:00,41.0,40.0,28.53,NNW,338,0.0,0.0,96,0.00,,---,0.00,VWS V14.01,2013-01-08 09:20:00,
2013-01-08 01:23:00,40.8,39.8,28.53,NNW,338,0.0,0.0,96,0.00,,---,0.00,VWS V14.01,2013-01-08 09:23:00,
2013-01-08 01:28:00,40.6,39.6,28.53,NNW,338,0.0,0.0,96,0.00,,---,0.00,VWS V14.01,2013-01-08 09:28:00,
2013-01-08 01:30:00,40.5,39.4,28.53,NNW,338,0.0,0.0,96,0.00,,---,0.00,VWS V14.01,2013-01-08 09:30:00,
2013-01-08 01:33:00,40.5,39.4,28.53,NNW,338,0.0,0.0,96,0.00,,---,0.00,VWS V14.01,2013-01-08 09:33:00,
2013-01-08 01:38:00,40.5,39.4,28.53,NNW,338,0.0,0.0,96,0.00,,---,0.00,VWS V14.01,2013-01-08 09:38:00,
2013-01-08 01:40:00,40.5,39.4,28.53,NNW,338,0.0,0.0,96,0.00,,---,0.00,VWS V14.01,2013-01-08 09:40:00,
2013-01-08 01:43:00,40.5,39.7,28.53,NNW,338,0.0,0.0,97,0.00,,---,0.00,VWS V14.01,2013-01-08 09:43:00,
2013-01-08 01:48:00,40.5,39.7,28.53,NNW,338,0.0,0.0,97,0.00,,---,0.00,VWS V14.01,2013-01-08 09:48:00,
2013-01-08 01:50:00,40.5,39.7,28.53,NNW,338,0.0,0.0,97,0.00,,---,0.00,VWS V14.01,2013-01-08 09:50:00,
2013-01-08 01:53:00,40.6,39.9,28.53,NNW,338,0.0,0.0,97,0.00,,---,0.00,VWS V14.01,2013-01-08 09:53:00,
2013-01-08 01:58:00,40.5,39.7,28.53,NNW,338,0.0,0.0,97,0.00,,---,0.00,VWS V14.01,2013-01-08 09:58:00,
2013-01-08 02:00:00,40.5,39.7,28.53,NNW,338,0.0,0.0,97,0.00,,---,0.00,VWS V14.01,2013-01-08 10:00:00,
2013-01-08 02:03:00,40.5,39.7,28.53,NNW,338,0.0,0.0,97,0.00,,---,0.00,VWS V14.01,2013-01-08 10:03:00,
2013-01-08 02:08:00,40.5,39.7,28.53,NNW,338,0.0,0.0,97,0.00,,---,0.00,VWS V14.01,2013-01-08 10:08:00,
2013-01-08 02:10:00,40.5,39.7,28.53,NNW,338,0.0,0.0,97,0.00,,---,0.00,VWS V14.01,2013-01-08 10:10:00,
2013-01-08 02:13:00,40.5,39.7,28.53,NNW,338,0.0,0.0,97,0.00,,---,0.00,VWS V14.01,2013-01-08 10:13:00,
2013-01-08 02:18:00,40.5,39.7,28.53,NNW,338,0.0,0.0,97,0.00,,---,0.00,VWS V14.01,2013-01-08 10:18:00,
2013-01-08 02:20:00,40.5,39.7,28.53,NNW,338,0.0,0.0,97,0.00,,---,0.00,VWS V14.01,2013-01-08 10:20:00,
2013-01-08 02:23:00,40.5,39.7,28.53,NNW,338,0.0,0.0,97,0.00,,---,0.00,VWS V14.01,2013-01-08 10:23:00,
2013-01-08 02:28:00,40.3,39.5,28.53,NNW,338,0.0,0.0,97,0.00,,---,0.00,VWS V14.01,2013-01-08 10:28:00,
2013-01-08 02:30:00,40.5,39.7,28.53,NNW,338,0.0,0.0,97,0.00,,---,0.00,VWS V14.01,2013-01-08 10:30:00,
2013-01-08 02:33:00,40.5,39.7,28.53,NNW,338,0.0,0.0,97,0.00,,---,0.00,VWS V14.01,2013-01-08 10:33:00,
2013-01-08 02:38:00,40.3,39.5,28.53,NNW,338,0.0,0.0,97,0.00,,---,0.00,VWS V14.01,2013-01-08 10:38:00,
2013-01-08 02:40:00,40.1,39.3,28.53,NNW,338,0.0,0.0,97,0.00,,---,0.00,VWS V14.01,2013-01-08 10:40:00,
2013-01-08 02:43:00,40.1,39.3,28.53,NNW,330,0.0,0.0,97,0.00,,---,0.00,VWS V14.01,2013-01-08 10:43:00,
2013-01-08 02:48:00,40.1,39.3,28.53,NNW,330,0.0,0.0,97,0.00,,---,0.00,VWS V14.01,2013-01-08 10:48:00,
2013-01-08 02:50:00,40.1,39.3,28.53,NNW,329,0.0,0.0,97,0.00,,---,0.00,VWS V14.01,2013-01-08 10:50:00,
2013-01-08 02:52:00,40.1,39.3,28.53,NNW,329,0.0,0.0,97,0.00,,---,0.00,VWS V14.01,2013-01-08 10:52:00,
2013-01-08 02:57:00,40.1,39.3,28.53,SSE,153,0.0,0.0,97,0.00,,---,0.00,VWS V14.01,2013-01-08 10:57:00,
2013-01-08 03:00:00,40.3,39.5,28.53,SSE,153,0.0,0.0,97,0.00,,---,0.00,VWS V14.01,2013-01-08 11:00:00,
2013-01-08 03:02:00,40.3,39.5,28.53,ESE,123,0.0,0.0,97,0.00,,---,0.00,VWS V14.01,2013-01-08 11:02:00,
2013-01-08 03:07:00,40.6,39.9,28.53,SE,130,0.0,0.0,97,0.00,,---,0.00,VWS V14.01,2013-01-08 11:07:00,
2013-01-08 03:10:00,41.0,40.2,28.53,SE,131,0.0,0.0,97,0.00,,---,0.00,VWS V14.01,2013-01-08 11:10:00,
2013-01-08 03:12:00,41.0,40.2,28.53,SSE,157,3.6,3.6,97,0.00,,---,0.00,VWS V14.01,2013-01-08 11:12:00,
2013-01-08 03:17:00,41.4,40.6,28.53,SSW,201,0.0,0.0,97,0.00,,---,0.00,VWS V14.01,2013-01-08 11:17:00,
2013-01-08 03:20:00,41.5,40.8,28.53,SSW,201,2.2,3.1,97,0.00,,---,0.00,VWS V14.01,2013-01-08 11:20:00,
2013-01-08 03:22:00,41.5,40.8,28.53,SSW,201,0.0,0.0,97,0.00,,---,0.00,VWS V14.01,2013-01-08 11:22:00,
2013-01-08 03:27:00,41.5,40.8,28.53,SSW,201,0.0,0.0,97,0.00,,---,0.00,VWS V14.01,2013-01-08 11:27:00,
2013-01-08 03:30:00,41.5,40.8,28.53,SSW,201,0.0,0.0,97,0.00,,---,0.00,VWS V14.01,2013-01-08 11:30:00,
2013-01-08 03:32:00,41.5,40.8,28.53,SSW,201,0.0,0.0,97,0.00,,---,0.00,VWS V14.01,2013-01-08 11:32:00,
2013-01-08 03:37:00,41.5,40.8,28.53,SSW,197,0.0,0.0,97,0.00,,---,0.00,VWS V14.01,2013-01-08 11:37:00,
2013-01-08 03:40:00,41.5,40.8,28.53,SSW,197,0.0,0.0,97,0.00,,---,0.00,VWS V14.01,2013-01-08 11:40:00,
2013-01-08 03:42:00,41.5,40.8,28.53,SSW,198,0.0,0.0,97,0.00,,---,0.00,VWS V14.01,2013-01-08 11:42:00,
2013-01-08 03:47:00,41.4,40.6,28.53,ESE,118,0.0,0.0,97,0.00,,---,0.00,VWS V14.01,2013-01-08 11:47:00,
2013-01-08 03:50:00,41.2,40.4,28.53,SE,138,0.0,0.0,97,0.00,,---,0.00,VWS V14.01,2013-01-08 11:50:00,
2013-01-08 03:52:00,41.2,40.1,28.53,SE,138,0.0,0.0,96,0.00,,---,0.00,VWS V14.01,2013-01-08 11:52:00,
2013-01-08 03:57:00,41.2,40.1,28.50,SE,137,0.0,0.0,96,0.00,,---,0.00,VWS V14.01,2013-01-08 11:57:00,
2013-01-08 04:00:00,41.0,40.0,28.50,SE,137,0.0,0.0,96,0.00,,---,0.00,VWS V14.01,2013-01-08 12:00:00,
2013-01-08 04:02:00,41.0,40.0,28.50,SE,137,0.0,0.0,96,0.00,,---,0.00,VWS V14.01,2013-01-08 12:02:00,
2013-01-08 04:07:00,41.0,40.0,28.50,SE,137,0.0,0.0,96,0.00,,---,0.00,VWS V14.01,2013-01-08 12:07:00,
2013-01-08 04:10:00,41.0,40.0,28.50,SE,137,0.0,0.0,96,0.00,,---,0.00,VWS V14.01,2013-01-08 12:10:00,
2013-01-08 04:12:00,40.8,40.0,28.50,SE,137,0.0,0.0,97,0.00,,---,0.00,VWS V14.01,2013-01-08 12:12:00,
2013-01-08 04:17:00,40.6,39.9,28.50,SE,137,0.0,0.0,97,0.00,,---,0.00,VWS V14.01,2013-01-08 12:17:00,
2013-01-08 04:20:00,40.6,39.9,28.50,SE,137,0.0,0.0,97,0.00,,---,0.00,VWS V14.01,2013-01-08 12:20:00,
2013-01-08 04:22:00,40.5,39.7,28.50,SE,137,0.0,0.0,97,0.00,,---,0.00,VWS V14.01,2013-01-08 12:22:00,
2013-01-08 04:27:00,40.3,39.5,28.50,SE,137,0.0,0.0,97,0.00,,---,0.00,VWS V14.01,2013-01-08 12:27:00,
2013-01-08 04:30:00,40.5,39.7,28.50,SE,137,0.0,0.0,97,0.00,,---,0.00,VWS V14.01,2013-01-08 12:30:00,
2013-01-08 04:32:00,40.3,39.5,28.50,SE,137,0.0,0.0,97,0.00,,---,0.00,VWS V14.01,2013-01-08 12:32:00,
2013-01-08 04:37:00,40.5,39.7,28.50,SE,137,0.0,0.0,97,0.00,,---,0.00,VWS V14.01,2013-01-08 12:37:00,
2013-01-08 04:40:00,40.5,39.7,28.50,SE,137,0.0,0.0,97,0.00,,---,0.00,VWS V14.01,2013-01-08 12:40:00,
2013-01-08 04:42:00,40.5,39.7,28.50,SE,125,0.0,0.0,97,0.00,,---,0.00,VWS V14.01,2013-01-08 12:42:00,
2013-01-08 04:47:00,40.5,39.7,28.50,East,84,0.0,0.0,97,0.00,,---,0.00,VWS V14.01,2013-01-08 12:47:00,
2013-01-08 04:50:00,40.3,39.5,28.50,East,84,0.0,0.0,97,0.00,,---,0.00,VWS V14.01,2013-01-08 12:50:00,
2013-01-08 04:52:00,40.3,39.2,28.50,East,84,0.0,0.0,96,0.00,,---,0.00,VWS V14.01,2013-01-08 12:52:00,
2013-01-08 04:57:00,40.1,39.0,28.50,East,84,0.0,0.0,96,0.00,,---,0.00,VWS V14.01,2013-01-08 12:57:00,
2013-01-08 05:00:00,40.3,39.2,28.47,East,84,0.0,0.0,96,0.00,,---,0.00,VWS V14.01,2013-01-08 13:00:00,
2013-01-08 05:02:00,40.3,39.2,28.47,East,84,0.0,0.0,96,0.00,,---,0.00,VWS V14.01,2013-01-08 13:02:00,
2013-01-08 05:07:00,40.3,39.2,28.47,South,175,0.0,0.0,96,0.00,,---,0.00,VWS V14.01,2013-01-08 13:07:00,
2013-01-08 05:10:00,40.3,39.2,28.47,South,175,0.0,0.0,96,0.00,,---,0.00,VWS V14.01,2013-01-08 13:10:00,
2013-01-08 05:12:00,40.3,39.2,28.47,South,175,0.0,0.0,96,0.00,,---,0.00,VWS V14.01,2013-01-08 13:12:00,
2013-01-08 05:17:00,40.1,39.0,28.47,South,181,0.0,0.0,96,0.00,,---,0.00,VWS V14.01,2013-01-08 13:17:00,
2013-01-08 05:20:00,39.7,38.7,28.47,South,181,0.0,0.0,96,0.00,,---,0.00,VWS V14.01,2013-01-08 13:20:00,
2013-01-08 05:22:00,39.7,38.7,28.47,South,181,0.0,0.0,96,0.00,,---,0.00,VWS V14.01,2013-01-08 13:22:00,
2013-01-08 05:27:00,39.7,38.7,28.47,South,181,0.0,0.0,96,0.00,,---,0.00,VWS V14.01,2013-01-08 13:27:00,
2013-01-08 05:30:00,39.7,38.7,28.47,South,181,0.0,0.0,96,0.00,,---,0.00,VWS V14.01,2013-01-08 13:30:00,
2013-01-08 05:32:00,39.7,38.7,28.47,ENE,76,0.0,0.0,96,0.00,,---,0.00,VWS V14.01,2013-01-08 13:32:00,
2013-01-08 05:37:00,39.7,39.0,28.47,ENE,76,0.0,0.0,97,0.00,,---,0.00,VWS V14.01,2013-01-08 13:37:00,
2013-01-08 05:40:00,39.9,39.1,28.47,SE,127,0.0,0.0,97,0.00,,---,0.00,VWS V14.01,2013-01-08 13:40:00,
2013-01-08 05:42:00,39.9,39.1,28.47,ESE,108,0.0,0.0,97,0.00,,---,0.00,VWS V14.01,2013-01-08 13:42:00,
2013-01-08 05:47:00,39.9,39.1,28.47,East,87,0.0,0.0,97,0.00,,---,0.00,VWS V14.01,2013-01-08 13:47:00,
2013-01-08 05:50:00,39.9,39.1,28.47,East,88,0.0,0.0,97,0.00,,---,0.00,VWS V14.01,2013-01-08 13:50:00,
2013-01-08 05:52:00,39.9,39.1,28.47,SE,129,0.0,0.0,97,0.00,,---,0.00,VWS V14.01,2013-01-08 13:52:00,
2013-01-08 05:57:00,39.9,39.1,28.44,ENE,78,0.0,0.0,97,0.00,,---,0.00,VWS V14.01,2013-01-08 13:57:00,
2013-01-08 06:00:00,39.9,39.1,28.44,East,88,0.0,0.0,97,0.00,,---,0.00,VWS V14.01,2013-01-08 14:00:00,
2013-01-08 06:02:00,39.9,39.1,28.44,East,94,0.0,0.0,97,0.00,,---,0.00,VWS V14.01,2013-01-08 14:02:00,
2013-01-08 06:07:00,39.9,39.1,28.44,East,94,0.0,0.0,97,0.00,,---,0.00,VWS V14.01,2013-01-08 14:07:00,
2013-01-08 06:10:00,39.9,39.1,28.44,East,94,0.0,0.0,97,0.00,,---,0.00,VWS V14.01,2013-01-08 14:10:00,
2013-01-08 06:12:00,39.9,39.1,28.44,East,94,0.0,0.0,97,0.00,,---,0.00,VWS V14.01,2013-01-08 14:12:00,
2013-01-08 06:17:00,39.9,39.1,28.44,SSE,154,0.0,0.0,97,0.00,,---,0.00,VWS V14.01,2013-01-08 14:17:00,
2013-01-08 06:20:00,39.9,39.1,28.44,SSE,161,3.6,3.6,97,0.00,,---,0.00,VWS V14.01,2013-01-08 14:20:00,
2013-01-08 06:22:00,39.9,39.1,28.44,SSE,161,0.0,0.0,97,0.00,,---,0.00,VWS V14.01,2013-01-08 14:22:00,
2013-01-08 06:27:00,39.9,39.1,28.44,SSE,148,0.0,0.0,97,0.00,,---,0.00,VWS V14.01,2013-01-08 14:27:00,
2013-01-08 06:30:00,39.7,39.0,28.44,SSE,148,0.0,0.0,97,0.00,,---,0.00,VWS V14.01,2013-01-08 14:30:00,
2013-01-08 06:32:00,39.9,39.1,28.44,East,95,0.0,0.0,97,0.00,,---,0.00,VWS V14.01,2013-01-08 14:32:00,
2013-01-08 06:37:00,39.7,38.7,28.44,East,93,0.0,0.0,96,0.00,,---,0.00,VWS V14.01,2013-01-08 14:37:00,
2013-01-08 06:40:00,39.7,38.7,28.44,SE,145,0.0,0.0,96,0.00,,---,0.00,VWS V14.01,2013-01-08 14:40:00,
2013-01-08 06:42:00,39.7,38.7,28.44,ESE,118,0.0,0.0,96,0.00,,---,0.00,VWS V14.01,2013-01-08 14:42:00,
2013-01-08 06:47:00,39.7,38.7,28.41,SE,138,0.0,0.0,96,0.00,,---,0.00,VWS V14.01,2013-01-08 14:47:00,
2013-01-08 06:50:00,39.7,39.0,28.41,SE,138,0.0,0.0,97,0.00,,---,0.00,VWS V14.01,2013-01-08 14:50:00,
2013-01-08 06:52:00,39.7,39.0,28.41,SE,138,0.0,0.0,97,0.00,,---,0.00,VWS V14.01,2013-01-08 14:52:00,
2013-01-08 06:57:00,39.9,39.1,28.41,SE,138,0.0,0.0,97,0.00,,---,0.00,VWS V14.01,2013-01-08 14:57:00,
2013-01-08 07:00:00,39.9,39.1,28.41,SE,138,0.0,0.0,97,0.00,,---,0.00,VWS V14.01,2013-01-08 15:00:00,
2013-01-08 07:02:00,39.6,38.8,28.41,SE,138,0.0,0.0,97,0.00,,---,0.00,VWS V14.01,2013-01-08 15:02:00,
2013-01-08 07:07:00,39.6,38.5,28.41,SE,126,0.0,0.0,96,0.00,,---,0.00,VWS V14.01,2013-01-08 15:07:00,
2013-01-08 07:10:00,39.6,38.8,28.41,NE,42,0.0,0.0,97,0.00,,---,0.00,VWS V14.01,2013-01-08 15:10:00,
2013-01-08 07:12:00,39.4,38.6,28.41,NE,42,0.0,0.0,97,0.00,,---,0.00,VWS V14.01,2013-01-08 15:12:00,
2013-01-08 07:17:00,39.2,38.2,28.41,NNE,18,0.0,0.0,96,0.00,,---,0.00,VWS V14.01,2013-01-08 15:17:00,
2013-01-08 07:20:00,39.2,38.2,28.41,NNE,18,0.0,0.0,96,0.00,,---,0.00,VWS V14.01,2013-01-08 15:20:00,
2013-01-08 07:22:00,39.2,38.2,28.41,NNE,18,0.0,0.0,96,0.00,,---,0.00,VWS V14.01,2013-01-08 15:22:00,
2013-01-08 07:27:00,39.2,38.4,28.41,NE,47,0.0,0.0,97,0.00,,---,0.00,VWS V14.01,2013-01-08 15:27:00,
2013-01-08 07:30:00,39.2,38.4,28.41,NE,47,0.0,0.0,97,0.00,,---,0.00,VWS V14.01,2013-01-08 15:30:00,
2013-01-08 07:32:00,39.0,38.2,28.41,NE,42,0.0,0.0,97,0.00,,---,0.00,VWS V14.01,2013-01-08 15:32:00,
2013-01-08 07:37:00,39.2,38.4,28.41,NE,53,0.0,0.0,97,0.00,,---,0.00,VWS V14.01,2013-01-08 15:37:00,
2013-01-08 07:40:00,39.4,38.6,28.41,NE,53,0.0,0.0,97,0.00,,---,0.00,VWS V14.01,2013-01-08 15:40:00,
2013-01-08 07:42:00,39.4,38.6,28.41,NE,38,0.0,0.0,97,0.00,,---,0.00,VWS V14.01,2013-01-08 15:42:00,
2013-01-08 07:47:00,39.6,38.8,28.41,NE,38,0.0,0.0,97,0.00,,---,0.00,VWS V14.01,2013-01-08 15:47:00,
2013-01-08 07:50:00,39.7,39.0,28.41,NE,47,0.0,0.0,97,0.00,,---,0.00,VWS V14.01,2013-01-08 15:50:00,
2013-01-08 07:52:00,39.7,39.0,28.41,NE,38,0.0,0.0,97,0.00,,---,0.00,VWS V14.01,2013-01-08 15:52:00,
2013-01-08 07:57:00,39.6,38.8,28.41,NNE,18,0.0,3.1,97,0.00,,---,0.00,VWS V14.01,2013-01-08 15:57:00,
2013-01-08 08:00:00,39.6,38.8,28.41,NNE,18,0.0,0.0,97,0.00,,---,0.00,VWS V14.01,2013-01-08 16:00:00,
2013-01-08 08:02:00,39.6,38.8,28.41,NNE,18,0.0,0.0,97,0.00,,---,0.00,VWS V14.01,2013-01-08 16:02:00,
2013-01-08 08:07:00,39.9,39.1,28.41,NNE,18,0.0,0.0,97,0.00,,---,0.00,VWS V14.01,2013-01-08 16:07:00,
2013-01-08 08:10:00,40.1,39.3,28.41,NNE,18,0.0,0.0,97,0.00,,---,0.00,VWS V14.01,2013-01-08 16:10:00,
2013-01-08 08:12:00,40.1,39.3,28.41,NNE,19,0.0,0.0,97,0.00,,---,0.00,VWS V14.01,2013-01-08 16:12:00,
2013-01-08 08:17:00,40.3,39.5,28.41,NNE,17,0.0,0.0,97,0.00,,---,0.00,VWS V14.01,2013-01-08 16:17:00,
2013-01-08 08:20:00,40.1,39.3,28.41,NNE,19,0.0,0.0,97,0.00,,---,0.00,VWS V14.01,2013-01-08 16:20:00,
2013-01-08 08:22:00,40.1,39.3,28.41,NNE,20,0.0,0.0,97,0.00,,---,0.00,VWS V14.01,2013-01-08 16:22:00,
2013-01-08 08:27:00,40.1,39.3,28.41,NNE,20,0.0,0.0,97,0.00,,---,0.00,VWS V14.01,2013-01-08 16:27:00,
2013-01-08 08:30:00,40.1,39.3,28.41,NNE,20,0.0,0.0,97,0.00,,---,0.00,VWS V14.01,2013-01-08 16:30:00,
2013-01-08 08:32:00,40.1,39.3,28.41,North,11,0.0,0.0,97,0.00,,---,0.00,VWS V14.01,2013-01-08 16:32:00,
2013-01-08 08:37:00,40.3,39.5,28.41,North,11,0.0,0.0,97,0.00,,---,0.00,VWS V14.01,2013-01-08 16:37:00,
2013-01-08 08:40:00,40.3,39.5,28.41,North,11,0.0,0.0,97,0.00,,---,0.00,VWS V14.01,2013-01-08 16:40:00,
2013-01-08 08:42:00,40.6,39.9,28.41,North,11,0.0,0.0,97,0.00,,---,0.00,VWS V14.01,2013-01-08 16:42:00,
2013-01-08 08:47:00,40.5,39.7,28.41,North,7,0.0,0.0,97,0.00,,---,0.00,VWS V14.01,2013-01-08 16:47:00,
2013-01-08 08:50:00,40.5,39.7,28.41,North,2,0.0,0.0,97,0.00,,---,0.00,VWS V14.01,2013-01-08 16:50:00,
2013-01-08 08:52:00,41.0,40.0,28.41,ESE,105,0.0,0.0,96,0.00,,---,0.00,VWS V14.01,2013-01-08 16:52:00,
2013-01-08 08:57:00,41.7,40.9,28.41,West,275,0.0,0.0,97,0.00,,---,0.00,VWS V14.01,2013-01-08 16:57:00,
2013-01-08 09:00:00,41.9,41.1,28.41,ESE,113,0.0,0.0,97,0.00,,---,0.00,VWS V14.01,2013-01-08 17:00:00,
2013-01-08 09:02:00,42.1,41.3,28.41,SE,134,5.4,5.4,97,0.00,,---,0.00,VWS V14.01,2013-01-08 17:02:00,
2013-01-08 09:07:00,42.4,41.7,28.41,SSE,159,0.0,0.0,97,0.00,,---,0.00,VWS V14.01,2013-01-08 17:07:00,
2013-01-08 09:10:00,42.4,41.7,28.41,NE,38,0.0,0.0,97,0.00,,---,0.00,VWS V14.01,2013-01-08 17:10:00,
2013-01-08 09:12:00,42.6,41.8,28.41,East,81,2.7,2.7,97,0.00,,---,0.00,VWS V14.01,2013-01-08 17:12:00,
2013-01-08 09:17:00,42.8,41.7,28.41,SW,225,0.0,0.0,96,0.00,,---,0.00,VWS V14.01,2013-01-08 17:17:00,
2013-01-08 09:20:00,42.8,41.7,28.41,SSE,150,0.0,0.0,96,0.00,,---,0.00,VWS V14.01,2013-01-08 17:20:00,
2013-01-08 09:22:00,43.0,41.9,28.41,ENE,69,0.0,0.0,96,0.00,,---,0.00,VWS V14.01,2013-01-08 17:22:00,
2013-01-08 09:27:00,43.2,42.1,28.41,ESE,108,0.0,0.0,96,0.00,,---,0.00,VWS V14.01,2013-01-08 17:27:00,
2013-01-08 09:30:00,43.2,42.1,28.41,ESE,102,0.0,0.0,96,0.00,,---,0.00,VWS V14.01,2013-01-08 17:30:00,
2013-01-08 09:32:00,43.2,42.1,28.41,SE,135,0.0,0.0,96,0.00,,---,0.00,VWS V14.01,2013-01-08 17:32:00,
2013-01-08 09:37:00,43.2,42.1,28.41,NE,47,0.0,0.0,96,0.00,,---,0.00,VWS V14.01,2013-01-08 17:37:00,
2013-01-08 09:40:00,43.2,42.1,28.41,North,357,0.0,0.0,96,0.00,,---,0.00,VWS V14.01,2013-01-08 17:40:00,
2013-01-08 09:42:00,43.3,42.3,28.41,South,171,6.3,6.3,96,0.00,,---,0.00,VWS V14.01,2013-01-08 17:42:00,
2013-01-08 09:47:00,43.7,42.6,28.41,NE,38,0.0,0.0,96,0.00,,---,0.00,VWS V14.01,2013-01-08 17:47:00,
2013-01-08 09:50:00,43.7,42.6,28.41,ENE,59,0.0,0.0,96,0.00,,---,0.00,VWS V14.01,2013-01-08 17:50:00,
2013-01-08 09:52:00,43.7,42.6,28.41,North,350,0.0,0.0,96,0.00,,---,0.00,VWS V14.01,2013-01-08 17:52:00,
2013-01-08 09:57:00,43.3,42.3,28.41,ENE,78,0.0,0.0,96,0.00,,---,0.00,VWS V14.01,2013-01-08 17:57:00,
2013-01-08 10:00:00,43.3,42.3,28.41,ENE,78,0.0,0.0,96,0.00,,---,0.00,VWS V14.01,2013-01-08 18:00:00,
2013-01-08 10:02:00,43.9,42.8,28.41,ENE,78,0.0,0.0,96,0.00,,---,0.00,VWS V14.01,2013-01-08 18:02:00,
2013-01-08 10:07:00,44.2,43.2,28.41,NNE,23,0.0,0.0,96,0.00,,---,0.00,VWS V14.01,2013-01-08 18:07:00,
2013-01-08 10:10:00,44.2,43.2,28.41,ENE,65,0.0,0.0,96,0.00,,---,0.00,VWS V14.01,2013-01-08 18:10:00,
2013-01-08 10:12:00,44.4,43.3,28.41,SE,136,0.0,0.0,96,0.00,,---,0.00,VWS V14.01,2013-01-08 18:12:00,
2013-01-08 10:17:00,44.8,43.7,28.41,ENE,78,0.0,0.0,96,0.00,,---,0.00,VWS V14.01,2013-01-08 18:17:00,
2013-01-08 10:20:00,45.0,43.9,28.41,ENE,64,0.0,0.0,96,0.00,,---,0.00,VWS V14.01,2013-01-08 18:20:00,
2013-01-08 10:22:00,45.0,43.9,28.41,NE,47,3.1,3.1,96,0.00,,---,0.00,VWS V14.01,2013-01-08 18:22:00,
2013-01-08 10:27:00,45.1,44.1,28.41,SSE,148,0.0,0.0,96,0.00,,---,0.00,VWS V14.01,2013-01-08 18:27:00,
2013-01-08 10:30:00,45.1,44.1,28.41,NNE,28,2.2,2.2,96,0.00,,---,0.00,VWS V14.01,2013-01-08 18:30:00,
2013-01-08 10:32:00,45.3,44.2,28.41,ESE,110,0.0,0.0,96,0.00,,---,0.00,VWS V14.01,2013-01-08 18:32:00,
2013-01-08 10:37:00,45.5,44.4,28.38,ENE,77,0.0,0.0,96,0.00,,---,0.00,VWS V14.01,2013-01-08 18:37:00,
2013-01-08 10:40:00,45.7,44.6,28.38,ENE,69,0.0,0.0,96,0.00,,---,0.00,VWS V14.01,2013-01-08 18:40:00,
2013-01-08 10:42:00,45.7,44.6,28.38,South,174,2.7,2.7,96,0.00,,---,0.00,VWS V14.01,2013-01-08 18:42:00,
2013-01-08 10:47:00,45.9,44.8,28.38,SSW,204,3.6,3.6,96,0.00,,---,0.00,VWS V14.01,2013-01-08 18:47:00,
2013-01-08 10:50:00,45.9,44.8,28.38,East,94,0.0,0.0,96,0.00,,---,0.00,VWS V14.01,2013-01-08 18:50:00,
2013-01-08 10:52:00,46.0,45.0,28.38,East,94,0.0,0.0,96,0.00,,---,0.00,VWS V14.01,2013-01-08 18:52:00,
2013-01-08 10:57:00,46.2,45.2,28.38,SSE,150,0.0,0.0,96,0.00,,---,0.00,VWS V14.01,2013-01-08 18:57:00,
2013-01-08 11:00:00,46.4,45.3,28.38,SSE,150,0.0,0.0,96,0.00,,---,0.00,VWS V14.01,2013-01-08 19:00:00,
2013-01-08 11:02:00,46.4,45.3,28.38,North,360,0.0,0.0,96,0.00,,---,0.00,VWS V14.01,2013-01-08 19:02:00,
2013-01-08 11:07:00,46.6,45.2,28.38,SE,140,0.0,0.0,95,0.00,,---,0.00,VWS V14.01,2013-01-08 19:07:00,
2013-01-08 11:10:00,46.6,45.2,28.38,SE,140,0.0,0.0,95,0.00,,---,0.00,VWS V14.01,2013-01-08 19:10:00,
2013-01-08 11:12:00,46.6,45.2,28.38,North,354,0.0,0.0,95,0.00,,---,0.00,VWS V14.01,2013-01-08 19:12:00,
2013-01-08 11:17:00,46.6,45.2,28.38,East,80,0.0,0.0,95,0.00,,---,0.00,VWS V14.01,2013-01-08 19:17:00,
2013-01-08 11:20:00,46.8,45.4,28.38,East,80,0.0,0.0,95,0.00,,---,0.00,VWS V14.01,2013-01-08 19:20:00,
2013-01-08 11:22:00,46.9,45.6,28.38,East,82,0.0,0.0,95,0.00,,---,0.00,VWS V14.01,2013-01-08 19:22:00,
2013-01-08 11:27:00,47.1,45.8,28.38,NE,42,0.0,0.0,95,0.00,,---,0.00,VWS V14.01,2013-01-08 19:27:00,
2013-01-08 11:30:00,47.3,45.9,28.38,NE,42,0.0,0.0,95,0.00,,---,0.00,VWS V14.01,2013-01-08 19:30:00,
2013-01-08 11:32:00,47.3,45.9,28.38,East,89,0.0,0.0,95,0.00,,---,0.00,VWS V14.01,2013-01-08 19:32:00,
2013-01-08 11:37:00,47.5,46.1,28.38,East,89,0.0,0.0,95,0.00,,---,0.00,VWS V14.01,2013-01-08 19:37:00,
2013-01-08 11:40:00,47.5,46.1,28.38,East,83,3.1,3.1,95,0.00,,---,0.00,VWS V14.01,2013-01-08 19:40:00,
2013-01-08 11:42:00,47.7,46.3,28.38,ENE,77,0.0,0.0,95,0.00,,---,0.00,VWS V14.01,2013-01-08 19:42:00,
2013-01-08 11:47:00,47.7,46.3,28.38,NE,53,0.0,0.0,95,0.00,,---,0.00,VWS V14.01,2013-01-08 19:47:00,
2013-01-08 11:50:00,47.7,46.3,28.38,SE,145,0.0,0.0,95,0.00,,---,0.00,VWS V14.01,2013-01-08 19:50:00,
2013-01-08 11:52:00,47.7,46.3,28.38,SE,140,0.0,0.0,95,0.00,,---,0.00,VWS V14.01,2013-01-08 19:52:00,
2013-01-08 11:57:00,48.0,46.7,28.38,SE,135,0.0,0.0,95,0.00,,---,0.00,VWS V14.01,2013-01-08 19:57:00,
2013-01-08 12:00:00,48.2,46.8,28.38,SSE,163,0.0,0.0,95,0.00,,---,0.00,VWS V14.01,2013-01-08 20:00:00,
2013-01-08 12:02:00,48.4,47.0,28.38,SSW,198,0.0,0.0,95,0.00,,---,0.00,VWS V14.01,2013-01-08 20:02:00,
2013-01-08 12:07:00,48.7,47.4,28.38,SSE,155,0.0,0.0,95,0.00,,---,0.00,VWS V14.01,2013-01-08 20:07:00,
2013-01-08 12:10:00,48.7,47.4,28.38,SSE,154,0.0,4.0,95,0.00,,---,0.00,VWS V14.01,2013-01-08 20:10:00,
2013-01-08 12:12:00,48.7,47.4,28.38,SSE,154,0.0,0.0,95,0.00,,---,0.00,VWS V14.01,2013-01-08 20:12:00,
2013-01-08 12:17:00,48.7,47.1,28.35,SE,134,0.0,0.0,94,0.00,,---,0.00,VWS V14.01,2013-01-08 20:17:00,
2013-01-08 12:20:00,48.9,47.3,28.35,SE,134,0.0,0.0,94,0.00,,---,0.00,VWS V14.01,2013-01-08 20:20:00,
2013-01-08 12:22:00,49.1,47.5,28.35,ESE,110,0.0,0.0,94,0.00,,---,0.00,VWS V14.01,2013-01-08 20:22:00,
2013-01-08 12:27:00,49.5,48.1,28.35,SSE,162,0.0,0.0,95,0.00,,---,0.00,VWS V14.01,2013-01-08 20:27:00,
2013-01-08 12:30:00,49.8,48.5,28.35,SSE,162,0.0,0.0,95,0.00,,---,0.00,VWS V14.01,2013-01-08 20:30:00,
2013-01-08 12:32:00,49.8,48.5,28.35,SSE,162,0.0,0.0,95,0.00,,---,0.00,VWS V14.01,2013-01-08 20:32:00,
2013-01-08 12:37:00,50.0,48.3,28.35,South,171,0.0,0.0,94,0.00,,---,0.00,VWS V14.01,2013-01-08 20:37:00,
2013-01-08 12:40:00,50.0,48.3,28.35,SSE,151,0.0,0.0,94,0.00,,---,0.00,VWS V14.01,2013-01-08 20:40:00,
2013-01-08 12:42:00,50.0,48.3,28.35,SSE,151,0.0,0.0,94,0.00,,---,0.00,VWS V14.01,2013-01-08 20:42:00,
2013-01-08 12:47:00,49.8,47.9,28.35,SSE,150,0.0,0.0,93,0.00,,---,0.00,VWS V14.01,2013-01-08 20:47:00,
2013-01-08 12:50:00,49.8,47.9,28.35,SSE,150,0.0,0.0,93,0.00,,---,0.00,VWS V14.01,2013-01-08 20:50:00,
2013-01-08 12:52:00,50.0,48.1,28.35,SSE,149,0.0,0.0,93,0.00,,---,0.00,VWS V14.01,2013-01-08 20:52:00,
2013-01-08 12:57:00,49.8,47.9,28.35,South,181,0.0,0.0,93,0.00,,---,0.00,VWS V14.01,2013-01-08 20:57:00,
2013-01-08 13:00:00,49.8,47.9,28.35,SSE,149,2.2,2.2,93,0.00,,---,0.00,VWS V14.01,2013-01-08 21:00:00,
2013-01-08 13:02:00,49.8,47.9,28.35,East,99,0.0,0.0,93,0.00,,---,0.00,VWS V14.01,2013-01-08 21:02:00,
2013-01-08 13:07:00,49.8,47.9,28.35,SSE,147,0.0,0.0,93,0.00,,---,0.00,VWS V14.01,2013-01-08 21:07:00,
2013-01-08 13:10:00,49.8,47.9,28.35,SE,144,0.0,0.0,93,0.00,,---,0.00,VWS V14.01,2013-01-08 21:10:00,
2013-01-08 13:12:00,50.0,48.1,28.35,SE,144,0.0,0.0,93,0.00,,---,0.00,VWS V14.01,2013-01-08 21:12:00,
2013-01-08 13:17:00,50.0,48.1,28.35,SSE,155,0.0,0.0,93,0.00,,---,0.00,VWS V14.01,2013-01-08 21:17:00,
2013-01-08 13:20:00,50.0,48.1,28.35,SE,138,3.1,3.1,93,0.00,,---,0.00,VWS V14.01,2013-01-08 21:20:00,
2013-01-08 13:22:00,50.0,48.1,28.35,SE,146,0.0,0.0,93,0.00,,---,0.00,VWS V14.01,2013-01-08 21:22:00,
2013-01-08 13:27:00,49.8,47.9,28.35,SSW,194,3.6,3.6,93,0.00,,---,0.00,VWS V14.01,2013-01-08 21:27:00,
2013-01-08 13:30:00,49.6,47.7,28.35,South,173,3.1,3.1,93,0.00,,---,0.00,VWS V14.01,2013-01-08 21:30:00,
2013-01-08 13:32:00,49.6,47.7,28.35,SSW,192,3.1,3.1,93,0.00,,---,0.00,VWS V14.01,2013-01-08 21:32:00,
2013-01-08 13:37:00,49.6,47.7,28.35,SSE,160,0.0,0.0,93,0.00,,---,0.00,VWS V14.01,2013-01-08 21:37:00,
2013-01-08 13:40:00,49.6,47.7,28.35,SE,134,3.1,3.1,93,0.00,,---,0.00,VWS V14.01,2013-01-08 21:40:00,
2013-01-08 13:42:00,49.6,47.7,28.35,SSE,159,0.0,0.0,93,0.00,,---,0.00,VWS V14.01,2013-01-08 21:42:00,
2013-01-08 13:47:00,49.5,47.5,28.35,SE,126,0.0,0.0,93,0.00,,---,0.00,VWS V14.01,2013-01-08 21:47:00,
2013-01-08 13:50:00,49.3,47.3,28.35,ESE,107,2.7,2.7,93,0.00,,---,0.00,VWS V14.01,2013-01-08 21:50:00,
2013-01-08 13:52:00,49.3,47.3,28.35,SE,129,3.6,3.6,93,0.00,,---,0.00,VWS V14.01,2013-01-08 21:52:00,
2013-01-08 13:57:00,49.3,47.3,28.32,ENE,70,3.1,3.1,93,0.00,,---,0.00,VWS V14.01,2013-01-08 21:57:00,
2013-01-08 14:00:00,49.5,47.5,28.32,SSE,168,4.0,4.0,93,0.00,,---,0.00,VWS V14.01,2013-01-08 22:00:00,
2013-01-08 14:02:00,49.5,47.5,28.32,SSE,168,4.0,4.0,93,0.00,,---,0.00,VWS V14.01,2013-01-08 22:02:00,
2013-01-08 14:07:00,49.5,47.5,28.32,SSE,156,0.0,2.2,93,0.00,,---,0.00,VWS V14.01,2013-01-08 22:07:00,
2013-01-08 14:10:00,49.5,47.5,28.32,SE,139,0.0,2.2,93,0.00,,---,0.00,VWS V14.01,2013-01-08 22:10:00,
2013-01-08 14:12:00,49.5,47.5,28.32,SE,143,0.0,0.0,93,0.00,,---,0.00,VWS V14.01,2013-01-08 22:12:00,
2013-01-08 14:17:00,49.5,47.5,28.32,SE,140,0.0,0.0,93,0.00,,---,0.00,VWS V14.01,2013-01-08 22:17:00,
2013-01-08 14:20:00,49.5,47.5,28.32,SSE,161,6.3,6.3,93,0.00,,---,0.00,VWS V14.01,2013-01-08 22:20:00,
2013-01-08 14:22:00,49.3,47.3,28.32,ENE,60,3.1,6.3,93,0.00,,---,0.00,VWS V14.01,2013-01-08 22:22:00,
2013-01-08 14:27:00,49.3,47.3,28.32,SE,140,4.0,4.0,93,0.00,,---,0.00,VWS V14.01,2013-01-08 22:27:00,
2013-01-08 14:30:00,49.3,47.3,28.32,SE,140,2.2,4.0,93,0.00,,---,0.00,VWS V14.01,2013-01-08 22:30:00,
2013-01-08 14:32:00,49.3,47.3,28.32,East,101,0.0,0.0,93,0.00,,---,0.00,VWS V14.01,2013-01-08 22:32:00,
2013-01-08 14:37:00,49.1,47.2,28.32,SE,144,7.6,7.6,93,0.00,,---,0.00,VWS V14.01,2013-01-08 22:37:00,
2013-01-08 14:40:00,49.1,47.2,28.32,ENE,59,2.7,4.0,93,0.00,,---,0.00,VWS V14.01,2013-01-08 22:40:00,
2013-01-08 14:42:00,49.1,47.2,28.32,ESE,112,3.1,3.1,93,0.00,,---,0.00,VWS V14.01,2013-01-08 22:42:00,
2013-01-08 14:47:00,48.9,47.0,28.32,ESE,118,0.0,0.0,93,0.00,,---,0.00,VWS V14.01,2013-01-08 22:47:00,
2013-01-08 14:50:00,48.9,47.0,28.32,SSE,156,0.0,0.0,93,0.00,,---,0.00,VWS V14.01,2013-01-08 22:50:00,
2013-01-08 14:52:00,48.7,46.8,28.32,SSE,156,0.0,0.0,93,0.00,,---,0.00,VWS V14.01,2013-01-08 22:52:00,
2013-01-08 14:57:00,48.7,46.8,28.32,SSE,160,8.7,8.7,93,0.00,,---,0.00,VWS V14.01,2013-01-08 22:57:00,
2013-01-08 15:00:00,48.7,46.8,28.32,South,177,3.1,3.1,93,0.00,,---,0.00,VWS V14.01,2013-01-08 23:00:00,
2013-01-08 15:02:00,48.7,47.1,28.32,South,178,0.0,0.0,94,0.00,,---,0.00,VWS V14.01,2013-01-08 23:02:00,
2013-01-08 15:06:00,48.6,46.9,28.32,SSE,163,0.0,0.0,94,0.00,,---,0.00,VWS V14.01,2013-01-08 23:06:00,
2013-01-08 15:10:00,48.6,46.9,28.32,SSE,156,0.0,0.0,94,0.00,,---,0.00,VWS V14.01,2013-01-08 23:10:00,
2013-01-08 15:11:00,48.6,46.9,28.32,East,89,0.0,6.3,94,0.00,,---,0.00,VWS V14.01,2013-01-08 23:11:00,
2013-01-08 15:16:00,48.6,46.9,28.32,ESE,116,3.1,3.1,94,0.00,,---,0.00,VWS V14.01,2013-01-08 23:16:00,
2013-01-08 15:20:00,48.6,46.9,28.32,ESE,119,0.0,0.0,94,0.00,,---,0.00,VWS V14.01,2013-01-08 23:20:00,
2013-01-08 15:21:00,48.7,47.1,28.32,South,169,0.0,0.0,94,0.00,,---,0.00,VWS V14.01,2013-01-08 23:21:00,
2013-01-08 15:26:00,48.7,47.1,28.32,SSE,156,2.2,2.2,94,0.00,,---,0.00,VWS V14.01,2013-01-08 23:26:00,
2013-01-08 15:30:00,48.6,46.9,28.32,SSE,151,2.7,3.6,94,0.00,,---,0.00,VWS V14.01,2013-01-08 23:30:00,
2013-01-08 15:31:00,48.6,46.9,28.32,SSE,154,3.6,3.6,94,0.00,,---,0.00,VWS V14.01,2013-01-08 23:31:00,
2013-01-08 15:36:00,48.6,46.9,28.32,ESE,108,2.7,2.7,94,0.00,,---,0.00,VWS V14.01,2013-01-08 23:36:00,
2013-01-08 15:40:00,48.4,46.7,28.32,SSE,155,0.0,4.5,94,0.00,,---,0.00,VWS V14.01,2013-01-08 23:40:00,
2013-01-08 15:41:00,48.4,46.7,28.32,South,175,0.0,0.0,94,0.00,,---,0.00,VWS V14.01,2013-01-08 23:41:00,
2013-01-08 15:46:00,48.4,46.7,28.32,South,170,5.8,5.8,94,0.00,,---,0.00,VWS V14.01,2013-01-08 23:46:00,
2013-01-08 15:50:00,48.4,46.7,28.32,SSE,148,0.0,0.0,94,0.00,,---,0.00,VWS V14.01,2013-01-08 23:50:00,
2013-01-08 15:51:00,48.4,46.7,28.32,SSE,148,0.0,0.0,94,0.00,,---,0.00,VWS V14.01,2013-01-08 23:51:00,
2013-01-08 15:56:00,48.4,47.0,28.29,South,191,0.0,0.0,95,0.00,,---,0.00,VWS V14.01,2013-01-08 23:56:00,
2013-01-08 16:00:00,48.4,47.0,28.29,South,189,0.0,0.0,95,0.00,,---,0.00,VWS V14.01,2013-01-09 00:00:00,
2013-01-08 16:01:00,48.4,47.0,28.29,SSE,153,4.0,4.0,95,0.00,,---,0.00,VWS V14.01,2013-01-09 00:01:00,
2013-01-08 16:06:00,48.4,47.0,28.29,SSW,194,0.0,0.0,95,0.00,,---,0.00,VWS V14.01,2013-01-09 00:06:00,
2013-01-08 16:10:00,48.4,47.0,28.29,South,189,0.0,0.0,95,0.00,,---,0.00,VWS V14.01,2013-01-09 00:10:00,
2013-01-08 16:11:00,48.4,47.0,28.29,SSW,194,0.0,0.0,95,0.00,,---,0.00,VWS V14.01,2013-01-09 00:11:00,
2013-01-08 16:16:00,48.4,47.0,28.32,South,182,0.0,0.0,95,0.00,,---,0.00,VWS V14.01,2013-01-09 00:16:00,
2013-01-08 16:20:00,48.4,47.0,28.32,SE,125,0.0,0.0,95,0.00,,---,0.00,VWS V14.01,2013-01-09 00:20:00,
2013-01-08 16:21:00,48.2,46.8,28.32,SE,125,0.0,0.0,95,0.00,,---,0.00,VWS V14.01,2013-01-09 00:21:00,
2013-01-08 16:26:00,48.2,46.8,28.32,East,90,0.0,0.0,95,0.00,,---,0.00,VWS V14.01,2013-01-09 00:26:00,
2013-01-08 16:30:00,48.2,46.8,28.29,SE,142,3.1,3.1,95,0.00,,---,0.00,VWS V14.01,2013-01-09 00:30:00,
2013-01-08 16:31:00,48.2,46.8,28.29,SE,129,2.2,3.1,95,0.00,,---,0.00,VWS V14.01,2013-01-09 00:31:00,
2013-01-08 16:36:00,48.2,46.8,28.29,ESE,105,0.0,0.0,95,0.00,,---,0.00,VWS V14.01,2013-01-09 00:36:00,
2013-01-08 16:40:00,48.2,46.8,28.29,ESE,118,0.0,0.0,95,0.00,,---,0.00,VWS V14.01,2013-01-09 00:40:00,
2013-01-08 16:41:00,48.2,46.8,28.29,ESE,118,0.0,0.0,95,0.00,,---,0.00,VWS V14.01,2013-01-09 00:41:00,
2013-01-08 16:46:00,48.2,46.8,28.29,East,93,0.0,0.0,95,0.00,,---,0.00,VWS V14.01,2013-01-09 00:46:00,
2013-01-08 16:50:00,48.2,46.8,28.29,NE,47,2.2,2.2,95,0.00,,---,0.00,VWS V14.01,2013-01-09 00:50:00,
2013-01-08 16:51:00,48.2,46.8,28.29,South,179,3.6,3.6,95,0.00,,---,0.00,VWS V14.01,2013-01-09 00:51:00,
2013-01-08 16:56:00,48.2,46.8,28.29,SSW,193,0.0,0.0,95,0.00,,---,0.00,VWS V14.01,2013-01-09 00:56:00,
2013-01-08 17:00:00,48.2,46.8,28.29,East,81,0.0,0.0,95,0.00,,---,0.00,VWS V14.01,2013-01-09 01:00:00,
2013-01-08 17:01:00,48.2,46.8,28.29,East,86,0.0,0.0,95,0.00,,---,0.00,VWS V14.01,2013-01-09 01:01:00,
2013-01-08 17:06:00,48.2,46.8,28.29,SSE,159,0.0,0.0,95,0.00,,---,0.00,VWS V14.01,2013-01-09 01:06:00,
2013-01-08 17:10:00,48.4,47.0,28.29,East,95,3.1,3.1,95,0.00,,---,0.00,VWS V14.01,2013-01-09 01:10:00,
2013-01-08 17:11:00,48.4,47.0,28.29,ESE,110,5.4,6.3,95,0.00,,---,0.00,VWS V14.01,2013-01-09 01:11:00,
2013-01-08 17:16:00,48.4,47.0,28.29,SSE,156,3.6,3.6,95,0.00,,---,0.00,VWS V14.01,2013-01-09 01:16:00,
2013-01-08 17:20:00,48.4,47.0,28.29,SE,127,0.0,0.0,95,0.00,,---,0.00,VWS V14.01,2013-01-09 01:20:00,
2013-01-08 17:25:00,48.2,46.8,28.29,SE,146,3.1,3.1,95,0.00,,---,0.00,VWS V14.01,2013-01-09 01:25:00,
2013-01-08 17:30:00,48.2,46.8,28.29,SSW,196,3.1,5.4,95,0.00,,---,0.00,VWS V14.01,2013-01-09 01:30:00,
2013-01-08 17:35:00,48.4,47.3,28.29,SSE,152,3.6,6.7,96,0.00,,---,0.00,VWS V14.01,2013-01-09 01:35:00,
2013-01-08 17:40:00,48.4,47.3,28.29,ENE,75,0.0,10.1,96,0.00,,---,0.00,VWS V14.01,2013-01-09 01:40:00,
2013-01-08 17:45:00,48.4,47.3,28.26,SE,128,5.4,5.8,96,0.00,,---,0.00,VWS V14.01,2013-01-09 01:45:00,
2013-01-08 17:50:00,48.4,47.0,28.26,ENE,77,7.6,9.2,95,0.00,,---,0.00,VWS V14.01,2013-01-09 01:50:00,
2013-01-08 17:55:00,48.4,47.0,28.26,South,183,0.0,6.3,95,0.00,,---,0.00,VWS V14.01,2013-01-09 01:55:00,
2013-01-08 18:00:00,48.4,47.0,28.26,SE,143,2.7,6.3,95,0.00,,---,0.00,VWS V14.01,2013-01-09 02:00:00,
2013-01-08 18:05:00,48.4,47.0,28.26,SE,129,0.0,7.6,95,0.00,,---,0.00,VWS V14.01,2013-01-09 02:05:00,
2013-01-08 18:10:00,48.4,47.0,28.26,SE,126,0.0,3.6,95,0.00,,---,0.00,VWS V14.01,2013-01-09 02:10:00,
2013-01-08 18:15:00,48.4,47.0,28.26,ENE,61,0.0,11.0,95,0.00,,---,0.00,VWS V14.01,2013-01-09 02:15:00,
2013-01-08 18:20:00,48.4,47.0,28.26,SE,125,0.0,3.6,95,0.00,,---,0.00,VWS V14.01,2013-01-09 02:20:00,
2013-01-08 18:25:00,48.2,46.8,28.26,ENE,68,0.0,5.4,95,0.00,,---,0.00,VWS V14.01,2013-01-09 02:25:00,
2013-01-08 18:30:00,48.4,47.0,28.26,East,95,0.0,0.0,95,0.00,,---,0.00,VWS V14.01,2013-01-09 02:30:00,
2013-01-08 18:35:00,48.4,47.0,28.26,SSE,163,7.2,8.1,95,0.00,,---,0.00,VWS V14.01,2013-01-09 02:35:00,
2013-01-08 18:40:00,48.4,47.0,28.26,SSE,154,2.7,8.3,95,0.00,,---,0.00,VWS V14.01,2013-01-09 02:40:00,
2013-01-08 18:45:00,48.4,47.0,28.26,SSE,158,0.0,0.0,95,0.00,,---,0.00,VWS V14.01,2013-01-09 02:45:00,
2013-01-08 18:50:00,48.6,47.2,28.26,SSE,160,0.0,4.0,95,0.00,,---,0.00,VWS V14.01,2013-01-09 02:50:00,
2013-01-08 18:55:00,48.6,46.9,28.26,ESE,120,0.0,5.4,94,0.00,,---,0.00,VWS V14.01,2013-01-09 02:55:00,
2013-01-08 19:00:00,48.4,46.5,28.26,South,191,0.0,4.5,93,0.00,,---,0.00,VWS V14.01,2013-01-09 03:00:00,
2013-01-08 19:05:00,48.2,46.3,28.26,NNW,336,0.0,4.0,93,0.00,,---,0.00,VWS V14.01,2013-01-09 03:05:00,
2013-01-08 19:10:00,48.2,46.3,28.26,East,99,5.8,5.8,93,0.00,,---,0.00,VWS V14.01,2013-01-09 03:10:00,
2013-01-08 19:15:00,48.2,46.3,28.26,East,83,3.1,7.2,93,0.00,,---,0.00,VWS V14.01,2013-01-09 03:15:00,
2013-01-08 19:20:00,48.2,46.3,28.26,NNE,23,0.0,0.0,93,0.00,,---,0.00,VWS V14.01,2013-01-09 03:20:00,
2013-01-08 19:25:00,48.0,46.4,28.26,SSW,205,2.7,7.2,94,0.00,,---,0.00,VWS V14.01,2013-01-09 03:25:00,
2013-01-08 19:30:00,48.0,46.4,28.26,NE,35,0.0,3.1,94,0.00,,---,0.00,VWS V14.01,2013-01-09 03:30:00,
2013-01-08 19:35:00,47.8,46.2,28.26,ESE,104,0.0,5.8,94,0.00,,---,0.00,VWS V14.01,2013-01-09 03:35:00,
2013-01-08 19:40:00,48.0,46.7,28.26,ESE,119,4.0,5.4,95,0.00,,---,0.00,VWS V14.01,2013-01-09 03:40:00,
2013-01-08 19:45:00,48.0,46.7,28.26,SE,133,3.1,3.6,95,0.00,,---,0.00,VWS V14.01,2013-01-09 03:45:00,
2013-01-08 19:50:00,48.0,46.7,28.26,SSE,159,3.6,4.9,95,0.00,,---,0.00,VWS V14.01,2013-01-09 03:50:00,
2013-01-08 19:55:00,48.0,46.7,28.26,SSE,159,0.0,2.2,95,0.00,,---,0.00,VWS V14.01,2013-01-09 03:55:00,
2013-01-08 20:00:00,48.2,46.8,28.26,ENE,78,0.0,0.0,95,0.00,,---,0.00,VWS V14.01,2013-01-09 04:00:00,
2013-01-08 20:05:00,48.0,46.7,28.26,SE,142,4.5,4.5,95,0.00,,---,0.00,VWS V14.01,2013-01-09 04:05:00,
2013-01-08 20:10:00,48.0,46.7,28.26,South,183,0.0,0.0,95,0.00,,---,0.00,VWS V14.01,2013-01-09 04:10:00,
2013-01-08 20:15:00,48.0,46.7,28.26,SE,136,0.0,10.5,95,0.00,,---,0.00,VWS V14.01,2013-01-09 04:15:00,
2013-01-08 20:20:00,48.0,46.7,28.26,South,174,0.0,2.7,95,0.00,,---,0.00,VWS V14.01,2013-01-09 04:20:00,
2013-01-08 20:25:00,48.0,46.7,28.23,SSW,204,0.0,3.6,95,0.00,,---,0.00,VWS V14.01,2013-01-09 04:25:00,
2013-01-08 20:30:00,48.0,46.7,28.23,East,87,0.0,5.4,95,0.00,,---,0.00,VWS V14.01,2013-01-09 04:30:00,
2013-01-08 20:35:00,48.2,46.8,28.23,SE,130,0.0,0.0,95,0.00,,---,0.00,VWS V14.01,2013-01-09 04:35:00,
2013-01-08 20:40:00,48.2,46.8,28.23,SE,133,2.7,7.6,95,0.00,,---,0.00,VWS V14.01,2013-01-09 04:40:00,
2013-01-08 20:45:00,48.2,46.6,28.23,ENE,76,0.0,8.1,94,0.00,,---,0.00,VWS V14.01,2013-01-09 04:45:00,
2013-01-08 20:50:00,48.0,46.7,28.23,ENE,75,2.7,5.8,95,0.00,,---,0.00,VWS V14.01,2013-01-09 04:50:00,
2013-01-08 20:55:00,47.8,46.2,28.23,SE,136,0.0,0.0,94,0.00,,---,0.00,VWS V14.01,2013-01-09 04:55:00,
2013-01-08 21:00:00,47.8,46.2,28.23,South,174,2.2,6.3,94,0.00,,---,0.00,VWS V14.01,2013-01-09 05:00:00,
2013-01-08 21:01:00,47.8,46.2,28.23,South,172,0.0,4.0,94,0.00,,---,0.00,VWS V14.01,2013-01-09 05:01:00,
2013-01-08 21:06:00,47.8,46.2,28.23,East,96,0.0,0.0,94,0.00,,---,0.00,VWS V14.01,2013-01-09 05:06:00,
2013-01-08 21:11:00,47.8,46.2,28.23,SE,134,0.0,4.9,94,0.00,,---,0.00,VWS V14.01,2013-01-09 05:11:00,
2013-01-08 21:16:00,47.5,45.8,28.23,SSE,150,0.0,0.0,94,0.00,,---,0.00,VWS V14.01,2013-01-09 05:16:00,
2013-01-08 21:21:00,47.5,45.8,28.23,SSE,161,0.0,0.0,94,0.00,,---,0.00,VWS V14.01,2013-01-09 05:21:00,
2013-01-08 21:26:00,47.5,45.8,28.23,SE,138,0.0,4.0,94,0.00,,---,0.00,VWS V14.01,2013-01-09 05:26:00,
2013-01-08 21:31:00,47.5,45.8,28.23,SE,137,0.0,0.0,94,0.00,,---,0.00,VWS V14.01,2013-01-09 05:31:00,
2013-01-08 21:36:00,47.5,45.8,28.23,SSE,165,2.7,2.7,94,0.00,,---,0.00,VWS V14.01,2013-01-09 05:36:00,
2013-01-08 21:41:00,47.3,45.7,28.23,SSE,155,3.6,3.6,94,0.00,,---,0.00,VWS V14.01,2013-01-09 05:41:00,
2013-01-08 21:46:00,47.3,45.7,28.23,SE,132,10.1,10.1,94,0.00,,---,0.00,VWS V14.01,2013-01-09 05:46:00,
2013-01-08 21:51:00,47.3,45.7,28.23,ESE,107,2.2,6.3,94,0.00,,---,0.00,VWS V14.01,2013-01-09 05:51:00,
2013-01-08 21:56:00,47.3,45.7,28.20,South,186,3.1,3.1,94,0.00,,---,0.00,VWS V14.01,2013-01-09 05:56:00,
2013-01-08 22:01:00,47.3,45.7,28.20,SSW,212,4.9,12.8,94,0.00,,---,0.00,VWS V14.01,2013-01-09 06:01:00,
2013-01-08 22:06:00,47.3,45.7,28.20,SE,134,5.4,5.4,94,0.00,,---,0.00,VWS V14.01,2013-01-09 06:06:00,
2013-01-08 22:11:00,47.5,45.6,28.23,SSE,151,9.6,12.8,93,0.00,,---,0.00,VWS V14.01,2013-01-09 06:11:00,
2013-01-08 22:16:00,47.7,45.2,28.23,SE,136,4.0,13.2,91,0.00,,---,0.00,VWS V14.01,2013-01-09 06:16:00,
2013-01-08 22:21:00,47.5,44.7,28.23,SSE,162,3.6,11.9,90,0.00,,---,0.00,VWS V14.01,2013-01-09 06:21:00,
2013-01-08 22:26:00,47.7,44.6,28.20,SE,139,6.3,17.4,89,0.00,,---,0.00,VWS V14.01,2013-01-09 06:26:00,
2013-01-08 22:31:00,47.7,44.6,28.20,ESE,119,5.8,12.3,89,0.00,,---,0.00,VWS V14.01,2013-01-09 06:31:00,
2013-01-08 22:36:00,47.7,44.6,28.20,SSE,165,10.5,10.5,89,0.00,,---,0.00,VWS V14.01,2013-01-09 06:36:00,
2013-01-08 22:41:00,47.5,44.1,28.20,South,176,0.0,7.6,88,0.00,,---,0.00,VWS V14.01,2013-01-09 06:41:00,
2013-01-08 22:46:00,47.5,44.1,28.20,SSW,203,8.3,10.5,88,0.00,,---,0.00,VWS V14.01,2013-01-09 06:46:00,
2013-01-08 22:51:00,47.5,43.8,28.20,East,83,10.1,11.0,87,0.00,,---,0.00,VWS V14.01,2013-01-09 06:51:00,
2013-01-08 22:56:00,47.7,43.7,28.20,SSE,168,7.6,10.5,86,0.00,,---,0.00,VWS V14.01,2013-01-09 06:56:00,
2013-01-08 23:01:00,47.7,43.7,28.20,SE,125,4.9,12.8,86,0.00,,---,0.00,VWS V14.01,2013-01-09 07:01:00,
2013-01-08 23:06:00,47.7,43.4,28.20,SSE,155,3.6,8.3,85,0.00,,---,0.00,VWS V14.01,2013-01-09 07:06:00,
2013-01-08 23:11:00,47.7,43.4,28.17,SE,143,11.0,14.1,85,0.00,,---,0.00,VWS V14.01,2013-01-09 07:11:00,
2013-01-08 23:16:00,47.7,43.1,28.17,East,95,5.8,8.3,84,0.00,,---,0.00,VWS V14.01,2013-01-09 07:16:00,
2013-01-08 23:21:00,47.7,42.8,28.17,South,171,15.0,15.0,83,0.00,,---,0.00,VWS V14.01,2013-01-09 07:21:00,
2013-01-08 23:26:00,47.8,42.6,28.20,SW,214,17.4,17.4,82,0.00,,---,0.00,VWS V14.01,2013-01-09 07:26:00,
2013-01-08 23:31:00,48.0,41.8,28.20,SSW,195,15.9,15.9,79,0.00,,---,0.00,VWS V14.01,2013-01-09 07:31:00,
2013-01-08 23:36:00,48.2,41.3,28.20,SSE,159,0.0,5.8,77,0.00,,---,0.00,VWS V14.01,2013-01-09 07:36:00,
2013-01-08 23:41:00,48.2,41.3,28.20,SE,136,3.6,3.6,77,0.00,,---,0.00,VWS V14.01,2013-01-09 07:41:00,
2013-01-08 23:46:00,48.2,41.3,28.20,East,93,8.1,8.1,77,0.00,,---,0.00,VWS V14.01,2013-01-09 07:46:00,
2013-01-08 23:51:00,48.0,41.2,28.20,SW,222,5.4,5.4,77,0.00,,---,0.00,VWS V14.01,2013-01-09 07:51:00,
2013-01-08 23:56:00,48.0,41.2,28.20,South,183,12.3,12.3,77,0.00,,---,0.00,VWS V14.01,2013-01-09 07:56:00,